sensor_id;sensor_type;location;lat;lon;timestamp;pressure;altitude;pressure_sealevel;temperature;humidity
46127;BME280;31859;55.030;-1.550;2022-10-03T00:00:15;101504.55;;;8.67;100.00
46127;BME280;31859;55.030;-1.550;2022-10-03T00:03:06;101503.11;;;8.57;100.00
46127;BME280;31859;55.030;-1.550;2022-10-03T00:05:43;101506.50;;;10.09;100.00
46127;BME280;31859;55.030;-1.550;2022-10-03T00:08:29;101514.84;;;9.25;100.00
46127;BME280;31859;55.030;-1.550;2022-10-03T00:11:05;101524.74;;;9.33;100.00
46127;BME280;31859;55.030;-1.550;2022-10-03T00:13:44;101526.15;;;10.15;100.00
46127;BME280;31859;55.030;-1.550;2022-10-03T00:16:21;101523.62;;;9.58;100.00
46127;BME280;31859;55.030;-1.550;2022-10-03T00:18:56;101517.69;;;9.08;100.00
46127;BME280;31859;55.030;-1.550;2022-10-03T00:21:37;101518.05;;;8.85;100.00
46127;BME280;31859;55.030;-1.550;2022-10-03T00:24:20;101521.50;;;9.54;100.00
46127;BME280;31859;55.030;-1.550;2022-10-03T00:26:54;101522.38;;;9.59;100.00
46127;BME280;31859;55.030;-1.550;2022-10-03T00:29:40;101521.33;;;9.72;100.00
46127;BME280;31859;55.030;-1.550;2022-10-03T00:32:20;101519.91;;;10.31;100.00
46127;BME280;31859;55.030;-1.550;2022-10-03T00:35:01;101522.17;;;9.47;100.00
46127;BME280;31859;55.030;-1.550;2022-10-03T00:37:34;101520.19;;;9.76;100.00
46127;BME280;31859;55.030;-1.550;2022-10-03T00:40:18;101523.01;;;10.35;100.00
46127;BME280;31859;55.030;-1.550;2022-10-03T00:45:51;101520.39;;;11.14;100.00
46127;BME280;31859;55.030;-1.550;2022-10-03T00:48:36;101513.18;;;9.95;100.00
46127;BME280;31859;55.030;-1.550;2022-10-03T00:51:23;101508.21;;;8.42;100.00
46127;BME280;31859;55.030;-1.550;2022-10-03T00:54:02;101515.19;;;8.36;100.00
46127;BME280;31859;55.030;-1.550;2022-10-03T00:56:46;101517.67;;;9.33;100.00
46127;BME280;31859;55.030;-1.550;2022-10-03T00:59:25;101517.95;;;10.46;100.00
46127;BME280;31859;55.030;-1.550;2022-10-03T01:01:58;101516.30;;;10.38;100.00
46127;BME280;31859;55.030;-1.550;2022-10-03T01:04:50;101513.52;;;10.36;100.00
46127;BME280;31859;55.030;-1.550;2022-10-03T01:07:35;101521.18;;;9.96;100.00
46127;BME280;31859;55.030;-1.550;2022-10-03T01:10:16;101523.64;;;11.02;100.00
46127;BME280;31859;55.030;-1.550;2022-10-03T01:12:56;101525.78;;;11.35;100.00
46127;BME280;31859;55.030;-1.550;2022-10-03T01:15:39;101524.11;;;9.84;100.00
46127;BME280;31859;55.030;-1.550;2022-10-03T01:18:18;101526.20;;;10.42;100.00
46127;BME280;31859;55.030;-1.550;2022-10-03T01:20:54;101530.10;;;10.72;100.00
46127;BME280;31859;55.030;-1.550;2022-10-03T01:23:39;101538.71;;;9.17;100.00
46127;BME280;31859;55.030;-1.550;2022-10-03T01:26:23;101532.67;;;8.77;100.00
46127;BME280;31859;55.030;-1.550;2022-10-03T01:29:00;101531.74;;;8.70;100.00
46127;BME280;31859;55.030;-1.550;2022-10-03T01:31:36;101532.87;;;8.65;100.00
46127;BME280;31859;55.030;-1.550;2022-10-03T01:34:12;101536.82;;;8.74;100.00
46127;BME280;31859;55.030;-1.550;2022-10-03T01:36:50;101538.56;;;9.26;100.00
46127;BME280;31859;55.030;-1.550;2022-10-03T01:39:25;101538.83;;;9.56;100.00
46127;BME280;31859;55.030;-1.550;2022-10-03T01:41:57;101544.64;;;9.79;100.00
46127;BME280;31859;55.030;-1.550;2022-10-03T01:44:33;101541.25;;;9.86;100.00
46127;BME280;31859;55.030;-1.550;2022-10-03T01:47:13;101536.11;;;9.44;100.00
46127;BME280;31859;55.030;-1.550;2022-10-03T01:49:47;101535.24;;;10.58;100.00
46127;BME280;31859;55.030;-1.550;2022-10-03T01:52:26;101535.78;;;10.31;100.00
46127;BME280;31859;55.030;-1.550;2022-10-03T01:55:04;101533.99;;;9.66;100.00
46127;BME280;31859;55.030;-1.550;2022-10-03T01:57:41;101527.98;;;8.97;100.00
46127;BME280;31859;55.030;-1.550;2022-10-03T02:00:14;101528.68;;;8.91;100.00
46127;BME280;31859;55.030;-1.550;2022-10-03T02:02:45;101529.12;;;8.64;100.00
46127;BME280;31859;55.030;-1.550;2022-10-03T02:05:18;101532.77;;;8.52;100.00
46127;BME280;31859;55.030;-1.550;2022-10-03T02:07:53;101539.77;;;9.14;100.00
46127;BME280;31859;55.030;-1.550;2022-10-03T02:10:31;101536.90;;;9.73;100.00
46127;BME280;31859;55.030;-1.550;2022-10-03T02:13:11;101530.16;;;9.78;100.00
46127;BME280;31859;55.030;-1.550;2022-10-03T02:15:54;101532.97;;;9.31;100.00
46127;BME280;31859;55.030;-1.550;2022-10-03T02:18:30;101537.52;;;9.64;100.00
46127;BME280;31859;55.030;-1.550;2022-10-03T02:21:09;101539.61;;;9.80;100.00
46127;BME280;31859;55.030;-1.550;2022-10-03T02:23:39;101542.66;;;9.71;100.00
46127;BME280;31859;55.030;-1.550;2022-10-03T02:26:51;101545.05;;;9.97;100.00
46127;BME280;31859;55.030;-1.550;2022-10-03T02:30:33;101545.51;;;10.61;100.00
46127;BME280;31859;55.030;-1.550;2022-10-03T02:38:08;101545.75;;;9.28;100.00
46127;BME280;31859;55.030;-1.550;2022-10-03T02:41:10;101547.65;;;8.90;100.00
46127;BME280;31859;55.030;-1.550;2022-10-03T02:44:12;101541.85;;;9.73;100.00
46127;BME280;31859;55.030;-1.550;2022-10-03T02:48:07;101539.98;;;7.93;100.00
46127;BME280;31859;55.030;-1.550;2022-10-03T02:50:57;101550.29;;;8.94;100.00
46127;BME280;31859;55.030;-1.550;2022-10-03T02:53:47;101555.06;;;8.88;100.00
46127;BME280;31859;55.030;-1.550;2022-10-03T02:56:46;101553.65;;;9.39;100.00
46127;BME280;31859;55.030;-1.550;2022-10-03T03:00:09;101554.42;;;9.24;100.00
46127;BME280;31859;55.030;-1.550;2022-10-03T03:03:05;101557.26;;;9.51;100.00
46127;BME280;31859;55.030;-1.550;2022-10-03T03:06:05;101553.91;;;9.30;100.00
46127;BME280;31859;55.030;-1.550;2022-10-03T03:08:51;101549.40;;;9.29;100.00
46127;BME280;31859;55.030;-1.550;2022-10-03T03:11:34;101552.24;;;9.21;100.00
46127;BME280;31859;55.030;-1.550;2022-10-03T03:14:27;101546.36;;;9.60;100.00
46127;BME280;31859;55.030;-1.550;2022-10-03T03:17:12;101537.74;;;9.75;100.00
46127;BME280;31859;55.030;-1.550;2022-10-03T03:19:54;101534.21;;;9.73;100.00
46127;BME280;31859;55.030;-1.550;2022-10-03T03:22:34;101533.38;;;9.82;100.00
46127;BME280;31859;55.030;-1.550;2022-10-03T03:25:25;101534.21;;;9.95;100.00
46127;BME280;31859;55.030;-1.550;2022-10-03T03:28:08;101528.94;;;10.11;100.00
46127;BME280;31859;55.030;-1.550;2022-10-03T03:30:43;101524.65;;;9.89;100.00
46127;BME280;31859;55.030;-1.550;2022-10-03T03:33:23;101526.69;;;9.44;100.00
46127;BME280;31859;55.030;-1.550;2022-10-03T03:35:59;101524.88;;;10.11;100.00
46127;BME280;31859;55.030;-1.550;2022-10-03T03:38:37;101524.07;;;10.58;100.00
46127;BME280;31859;55.030;-1.550;2022-10-03T03:41:16;101527.48;;;11.59;100.00
46127;BME280;31859;55.030;-1.550;2022-10-03T03:43:58;101529.36;;;11.47;100.00
46127;BME280;31859;55.030;-1.550;2022-10-03T03:46:41;101527.70;;;10.37;100.00
46127;BME280;31859;55.030;-1.550;2022-10-03T03:49:23;101529.85;;;10.88;100.00
46127;BME280;31859;55.030;-1.550;2022-10-03T03:52:02;101525.02;;;9.52;100.00
46127;BME280;31859;55.030;-1.550;2022-10-03T03:56:54;101519.89;;;8.83;100.00
46127;BME280;31859;55.030;-1.550;2022-10-03T03:59:37;101519.94;;;8.39;100.00
46127;BME280;31859;55.030;-1.550;2022-10-03T04:02:19;101517.73;;;8.76;100.00
46127;BME280;31859;55.030;-1.550;2022-10-03T04:05:01;101513.19;;;9.03;100.00
46127;BME280;31859;55.030;-1.550;2022-10-03T04:07:47;101509.94;;;9.60;100.00
46127;BME280;31859;55.030;-1.550;2022-10-03T04:10:29;101512.88;;;9.87;100.00
46127;BME280;31859;55.030;-1.550;2022-10-03T04:13:12;101511.91;;;10.40;100.00
46127;BME280;31859;55.030;-1.550;2022-10-03T04:15:55;101519.70;;;9.66;100.00
46127;BME280;31859;55.030;-1.550;2022-10-03T04:18:41;101513.36;;;8.84;100.00
46127;BME280;31859;55.030;-1.550;2022-10-03T04:21:31;101523.42;;;7.65;100.00
46127;BME280;31859;55.030;-1.550;2022-10-03T04:24:15;101519.36;;;8.59;100.00
46127;BME280;31859;55.030;-1.550;2022-10-03T04:27:02;101516.21;;;10.22;100.00
46127;BME280;31859;55.030;-1.550;2022-10-03T04:29:59;101518.61;;;10.59;100.00
46127;BME280;31859;55.030;-1.550;2022-10-03T04:32:46;101528.40;;;9.92;100.00
46127;BME280;31859;55.030;-1.550;2022-10-03T04:35:32;101530.22;;;9.55;100.00
46127;BME280;31859;55.030;-1.550;2022-10-03T04:38:12;101533.10;;;9.29;100.00
46127;BME280;31859;55.030;-1.550;2022-10-03T04:40:49;101532.19;;;9.17;100.00
46127;BME280;31859;55.030;-1.550;2022-10-03T04:43:31;101533.34;;;9.42;100.00
46127;BME280;31859;55.030;-1.550;2022-10-03T04:46:15;101530.53;;;9.58;100.00
46127;BME280;31859;55.030;-1.550;2022-10-03T04:48:55;101530.53;;;9.37;100.00
46127;BME280;31859;55.030;-1.550;2022-10-03T04:51:34;101534.36;;;9.24;100.00
46127;BME280;31859;55.030;-1.550;2022-10-03T04:54:15;101531.43;;;8.17;100.00
46127;BME280;31859;55.030;-1.550;2022-10-03T04:56:50;101538.70;;;8.05;100.00
46127;BME280;31859;55.030;-1.550;2022-10-03T04:59:28;101537.30;;;8.99;100.00
46127;BME280;31859;55.030;-1.550;2022-10-03T05:02:01;101535.58;;;8.84;100.00
46127;BME280;31859;55.030;-1.550;2022-10-03T05:04:34;101535.69;;;8.79;100.00
46127;BME280;31859;55.030;-1.550;2022-10-03T05:07:12;101531.04;;;9.49;100.00
46127;BME280;31859;55.030;-1.550;2022-10-03T05:09:51;101530.64;;;9.81;100.00
46127;BME280;31859;55.030;-1.550;2022-10-03T05:12:30;101523.90;;;9.86;100.00
46127;BME280;31859;55.030;-1.550;2022-10-03T05:15:11;101527.88;;;9.69;100.00
46127;BME280;31859;55.030;-1.550;2022-10-03T05:17:47;101525.82;;;9.69;100.00
46127;BME280;31859;55.030;-1.550;2022-10-03T05:20:29;101525.12;;;9.38;100.00
46127;BME280;31859;55.030;-1.550;2022-10-03T05:23:10;101530.51;;;9.23;100.00
46127;BME280;31859;55.030;-1.550;2022-10-03T05:25:48;101531.76;;;8.90;100.00
46127;BME280;31859;55.030;-1.550;2022-10-03T05:28:31;101533.90;;;8.50;100.00
46127;BME280;31859;55.030;-1.550;2022-10-03T05:31:06;101533.84;;;8.08;100.00
46127;BME280;31859;55.030;-1.550;2022-10-03T05:33:45;101527.33;;;8.77;100.00
46127;BME280;31859;55.030;-1.550;2022-10-03T05:36:25;101531.12;;;7.65;100.00
46127;BME280;31859;55.030;-1.550;2022-10-03T05:39:23;101529.24;;;7.81;100.00
46127;BME280;31859;55.030;-1.550;2022-10-03T05:41:54;101530.62;;;8.37;100.00
46127;BME280;31859;55.030;-1.550;2022-10-03T05:44:38;101532.19;;;9.17;100.00
46127;BME280;31859;55.030;-1.550;2022-10-03T05:47:10;101530.20;;;9.35;100.00
46127;BME280;31859;55.030;-1.550;2022-10-03T05:49:49;101526.12;;;9.58;100.00
46127;BME280;31859;55.030;-1.550;2022-10-03T05:52:34;101520.79;;;10.28;100.00
46127;BME280;31859;55.030;-1.550;2022-10-03T05:55:21;101524.00;;;10.11;100.00
46127;BME280;31859;55.030;-1.550;2022-10-03T05:58:19;101528.97;;;9.89;100.00
46127;BME280;31859;55.030;-1.550;2022-10-03T06:01:45;101525.07;;;10.19;100.00
46127;BME280;31859;55.030;-1.550;2022-10-03T06:06:40;101523.43;;;10.45;100.00
46127;BME280;31859;55.030;-1.550;2022-10-03T06:10:29;101526.23;;;10.03;100.00
46127;BME280;31859;55.030;-1.550;2022-10-03T06:13:11;101523.59;;;9.68;100.00
46127;BME280;31859;55.030;-1.550;2022-10-03T06:15:49;101511.51;;;10.42;100.00
46127;BME280;31859;55.030;-1.550;2022-10-03T06:18:42;101514.48;;;10.26;100.00
46127;BME280;31859;55.030;-1.550;2022-10-03T06:22:45;101515.08;;;10.20;100.00
46127;BME280;31859;55.030;-1.550;2022-10-03T06:25:41;101509.08;;;9.92;100.00
46127;BME280;31859;55.030;-1.550;2022-10-03T06:29:47;101505.91;;;10.00;100.00
46127;BME280;31859;55.030;-1.550;2022-10-03T06:33:50;101514.88;;;10.72;100.00
46127;BME280;31859;55.030;-1.550;2022-10-03T06:36:30;101523.69;;;11.74;100.00
46127;BME280;31859;55.030;-1.550;2022-10-03T06:40:34;101532.97;;;12.23;100.00
46127;BME280;31859;55.030;-1.550;2022-10-03T06:43:21;101526.84;;;12.35;100.00
46127;BME280;31859;55.030;-1.550;2022-10-03T06:46:15;101534.32;;;11.30;100.00
46127;BME280;31859;55.030;-1.550;2022-10-03T06:49:09;101529.64;;;11.34;100.00
46127;BME280;31859;55.030;-1.550;2022-10-03T06:51:55;101520.93;;;10.75;100.00
46127;BME280;31859;55.030;-1.550;2022-10-03T06:56:55;101525.16;;;11.95;100.00
46127;BME280;31859;55.030;-1.550;2022-10-03T06:59:43;101534.75;;;11.90;100.00
46127;BME280;31859;55.030;-1.550;2022-10-03T07:02:37;101529.85;;;12.65;100.00
46127;BME280;31859;55.030;-1.550;2022-10-03T07:08:03;101534.87;;;13.10;100.00
46127;BME280;31859;55.030;-1.550;2022-10-03T07:10:48;101530.72;;;13.02;100.00
46127;BME280;31859;55.030;-1.550;2022-10-03T07:13:40;101528.66;;;12.97;100.00
46127;BME280;31859;55.030;-1.550;2022-10-03T07:16:28;101524.81;;;12.37;100.00
46127;BME280;31859;55.030;-1.550;2022-10-03T07:24:08;101523.72;;;13.91;100.00
46127;BME280;31859;55.030;-1.550;2022-10-03T07:26:56;101528.64;;;13.74;100.00
46127;BME280;31859;55.030;-1.550;2022-10-03T07:29:38;101532.55;;;12.78;100.00
46127;BME280;31859;55.030;-1.550;2022-10-03T07:35:30;101528.54;;;13.73;100.00
46127;BME280;31859;55.030;-1.550;2022-10-03T07:38:16;101525.24;;;12.89;100.00
46127;BME280;31859;55.030;-1.550;2022-10-03T07:41:20;101524.23;;;13.24;100.00
46127;BME280;31859;55.030;-1.550;2022-10-03T07:44:07;101526.09;;;14.40;100.00
46127;BME280;31859;55.030;-1.550;2022-10-03T07:46:56;101533.36;;;14.79;100.00
46127;BME280;31859;55.030;-1.550;2022-10-03T07:49:47;101533.55;;;14.67;100.00
46127;BME280;31859;55.030;-1.550;2022-10-03T07:52:36;101536.68;;;14.97;100.00
46127;BME280;31859;55.030;-1.550;2022-10-03T07:55:24;101528.15;;;12.52;100.00
46127;BME280;31859;55.030;-1.550;2022-10-03T07:58:11;101532.05;;;14.14;100.00
46127;BME280;31859;55.030;-1.550;2022-10-03T08:01:00;101534.99;;;13.61;100.00
46127;BME280;31859;55.030;-1.550;2022-10-03T08:04:27;101534.30;;;13.92;100.00
46127;BME280;31859;55.030;-1.550;2022-10-03T08:07:14;101534.06;;;14.16;100.00
46127;BME280;31859;55.030;-1.550;2022-10-03T08:09:59;101540.65;;;15.07;100.00
46127;BME280;31859;55.030;-1.550;2022-10-03T08:12:54;101544.19;;;14.73;100.00
46127;BME280;31859;55.030;-1.550;2022-10-03T08:15:31;101540.88;;;13.36;100.00
46127;BME280;31859;55.030;-1.550;2022-10-03T08:18:57;101539.12;;;13.28;100.00
46127;BME280;31859;55.030;-1.550;2022-10-03T08:21:41;101533.16;;;12.99;100.00
46127;BME280;31859;55.030;-1.550;2022-10-03T08:24:28;101531.73;;;13.84;100.00
46127;BME280;31859;55.030;-1.550;2022-10-03T08:27:14;101537.78;;;14.16;100.00
46127;BME280;31859;55.030;-1.550;2022-10-03T08:30:15;101537.67;;;13.01;100.00
46127;BME280;31859;55.030;-1.550;2022-10-03T08:33:17;101521.38;;;12.23;100.00
46127;BME280;31859;55.030;-1.550;2022-10-03T08:36:19;101513.22;;;11.71;100.00
46127;BME280;31859;55.030;-1.550;2022-10-03T08:39:09;101508.11;;;11.46;100.00
46127;BME280;31859;55.030;-1.550;2022-10-03T08:42:26;101501.42;;;12.04;100.00
46127;BME280;31859;55.030;-1.550;2022-10-03T08:45:27;101505.80;;;13.02;100.00
46127;BME280;31859;55.030;-1.550;2022-10-03T08:50:38;101500.85;;;11.59;100.00
46127;BME280;31859;55.030;-1.550;2022-10-03T08:53:28;101497.44;;;11.92;100.00
46127;BME280;31859;55.030;-1.550;2022-10-03T08:56:03;101496.85;;;13.04;100.00
46127;BME280;31859;55.030;-1.550;2022-10-03T08:59:15;101505.94;;;12.34;100.00
46127;BME280;31859;55.030;-1.550;2022-10-03T09:02:39;101504.68;;;11.03;100.00
46127;BME280;31859;55.030;-1.550;2022-10-03T09:05:39;101499.51;;;10.80;100.00
46127;BME280;31859;55.030;-1.550;2022-10-03T09:09:08;101492.26;;;10.92;100.00
46127;BME280;31859;55.030;-1.550;2022-10-03T09:11:53;101492.28;;;11.31;100.00
46127;BME280;31859;55.030;-1.550;2022-10-03T09:18:45;101493.54;;;12.38;100.00
46127;BME280;31859;55.030;-1.550;2022-10-03T09:21:37;101486.30;;;12.54;100.00
46127;BME280;31859;55.030;-1.550;2022-10-03T09:25:22;101488.54;;;12.41;100.00
46127;BME280;31859;55.030;-1.550;2022-10-03T09:29:39;101481.18;;;11.87;100.00
46127;BME280;31859;55.030;-1.550;2022-10-03T09:32:55;101464.99;;;10.18;100.00
46127;BME280;31859;55.030;-1.550;2022-10-03T09:35:51;101476.02;;;10.92;100.00
46127;BME280;31859;55.030;-1.550;2022-10-03T09:42:57;101482.11;;;11.89;100.00
46127;BME280;31859;55.030;-1.550;2022-10-03T09:45:46;101483.84;;;11.89;100.00
46127;BME280;31859;55.030;-1.550;2022-10-03T09:48:30;101481.44;;;12.47;100.00
46127;BME280;31859;55.030;-1.550;2022-10-03T09:51:16;101477.66;;;12.51;100.00
46127;BME280;31859;55.030;-1.550;2022-10-03T09:54:11;101476.00;;;11.52;100.00
46127;BME280;31859;55.030;-1.550;2022-10-03T09:57:36;101471.01;;;12.34;100.00
46127;BME280;31859;55.030;-1.550;2022-10-03T10:00:18;101470.45;;;12.56;100.00
46127;BME280;31859;55.030;-1.550;2022-10-03T10:03:25;101471.35;;;13.22;100.00
46127;BME280;31859;55.030;-1.550;2022-10-03T10:06:13;101470.12;;;12.52;100.00
46127;BME280;31859;55.030;-1.550;2022-10-03T10:09:35;101467.86;;;11.87;100.00
46127;BME280;31859;55.030;-1.550;2022-10-03T10:12:26;101456.81;;;12.23;100.00
46127;BME280;31859;55.030;-1.550;2022-10-03T10:15:53;101440.66;;;12.64;100.00
46127;BME280;31859;55.030;-1.550;2022-10-03T10:18:35;101437.33;;;12.75;100.00
46127;BME280;31859;55.030;-1.550;2022-10-03T10:23:43;101433.27;;;13.67;100.00
46127;BME280;31859;55.030;-1.550;2022-10-03T10:26:36;101426.78;;;12.53;100.00
46127;BME280;31859;55.030;-1.550;2022-10-03T10:30:18;101413.43;;;13.06;100.00
46127;BME280;31859;55.030;-1.550;2022-10-03T10:33:23;101411.50;;;12.03;100.00
46127;BME280;31859;55.030;-1.550;2022-10-03T10:38:21;101402.21;;;11.33;100.00
46127;BME280;31859;55.030;-1.550;2022-10-03T10:41:16;101402.34;;;11.62;100.00
46127;BME280;31859;55.030;-1.550;2022-10-03T10:44:23;101400.50;;;11.56;100.00
46127;BME280;31859;55.030;-1.550;2022-10-03T10:47:10;101400.07;;;10.34;100.00
46127;BME280;31859;55.030;-1.550;2022-10-03T10:52:16;101396.04;;;12.35;100.00
46127;BME280;31859;55.030;-1.550;2022-10-03T10:55:38;101393.55;;;12.11;100.00
46127;BME280;31859;55.030;-1.550;2022-10-03T10:59:09;101390.31;;;11.96;100.00
46127;BME280;31859;55.030;-1.550;2022-10-03T11:04:17;101395.16;;;12.49;100.00
46127;BME280;31859;55.030;-1.550;2022-10-03T11:07:27;101386.87;;;12.35;100.00
46127;BME280;31859;55.030;-1.550;2022-10-03T11:10:31;101379.96;;;12.57;100.00
46127;BME280;31859;55.030;-1.550;2022-10-03T11:13:27;101382.72;;;12.50;100.00
46127;BME280;31859;55.030;-1.550;2022-10-03T11:16:31;101379.45;;;12.61;100.00
46127;BME280;31859;55.030;-1.550;2022-10-03T11:22:58;101372.25;;;12.56;100.00
46127;BME280;31859;55.030;-1.550;2022-10-03T11:30:21;101357.27;;;13.08;100.00
46127;BME280;31859;55.030;-1.550;2022-10-03T11:33:16;101357.08;;;12.50;100.00
46127;BME280;31859;55.030;-1.550;2022-10-03T11:36:09;101350.53;;;12.52;100.00
46127;BME280;31859;55.030;-1.550;2022-10-03T11:38:46;101347.58;;;13.45;100.00
46127;BME280;31859;55.030;-1.550;2022-10-03T11:41:28;101346.86;;;13.18;100.00
46127;BME280;31859;55.030;-1.550;2022-10-03T11:44:07;101340.89;;;13.60;100.00
46127;BME280;31859;55.030;-1.550;2022-10-03T11:46:49;101336.56;;;13.63;100.00
46127;BME280;31859;55.030;-1.550;2022-10-03T11:50:10;101332.88;;;13.20;100.00
46127;BME280;31859;55.030;-1.550;2022-10-03T11:52:54;101326.93;;;13.52;100.00
46127;BME280;31859;55.030;-1.550;2022-10-03T11:55:30;101312.39;;;13.73;100.00
46127;BME280;31859;55.030;-1.550;2022-10-03T11:58:10;101315.50;;;12.62;100.00
46127;BME280;31859;55.030;-1.550;2022-10-03T12:00:45;101322.91;;;12.87;100.00
46127;BME280;31859;55.030;-1.550;2022-10-03T12:03:20;101326.83;;;13.04;100.00
46127;BME280;31859;55.030;-1.550;2022-10-03T12:05:54;101317.19;;;12.73;100.00
46127;BME280;31859;55.030;-1.550;2022-10-03T12:08:28;101310.61;;;13.08;100.00
46127;BME280;31859;55.030;-1.550;2022-10-03T12:11:05;101309.72;;;13.08;100.00
46127;BME280;31859;55.030;-1.550;2022-10-03T12:13:40;101301.01;;;12.80;100.00
46127;BME280;31859;55.030;-1.550;2022-10-03T12:16:18;101297.20;;;13.31;100.00
46127;BME280;31859;55.030;-1.550;2022-10-03T12:18:54;101286.33;;;12.69;100.00
46127;BME280;31859;55.030;-1.550;2022-10-03T12:21:28;101283.02;;;12.36;100.00
46127;BME280;31859;55.030;-1.550;2022-10-03T12:24:12;101273.48;;;12.80;100.00
46127;BME280;31859;55.030;-1.550;2022-10-03T12:26:48;101268.23;;;13.58;100.00
46127;BME280;31859;55.030;-1.550;2022-10-03T12:29:20;101269.72;;;12.93;100.00
46127;BME280;31859;55.030;-1.550;2022-10-03T12:32:00;101271.04;;;13.35;100.00
46127;BME280;31859;55.030;-1.550;2022-10-03T12:34:37;101270.84;;;13.08;100.00
46127;BME280;31859;55.030;-1.550;2022-10-03T12:37:29;101267.26;;;13.58;100.00
46127;BME280;31859;55.030;-1.550;2022-10-03T12:40:02;101266.27;;;13.53;100.00
46127;BME280;31859;55.030;-1.550;2022-10-03T12:42:34;101263.48;;;12.93;100.00
46127;BME280;31859;55.030;-1.550;2022-10-03T12:45:14;101253.54;;;14.00;100.00
46127;BME280;31859;55.030;-1.550;2022-10-03T12:47:57;101254.15;;;13.29;100.00
46127;BME280;31859;55.030;-1.550;2022-10-03T12:50:36;101248.90;;;13.36;100.00
46127;BME280;31859;55.030;-1.550;2022-10-03T12:53:21;101252.42;;;13.30;100.00
46127;BME280;31859;55.030;-1.550;2022-10-03T12:56:00;101254.14;;;13.73;100.00
46127;BME280;31859;55.030;-1.550;2022-10-03T12:58:37;101249.44;;;12.99;100.00
46127;BME280;31859;55.030;-1.550;2022-10-03T13:01:14;101248.41;;;13.11;100.00
46127;BME280;31859;55.030;-1.550;2022-10-03T13:03:50;101244.82;;;13.77;100.00
46127;BME280;31859;55.030;-1.550;2022-10-03T13:06:34;101236.17;;;13.07;100.00
46127;BME280;31859;55.030;-1.550;2022-10-03T13:09:14;101226.96;;;12.53;100.00
46127;BME280;31859;55.030;-1.550;2022-10-03T13:11:54;101214.77;;;11.74;100.00
46127;BME280;31859;55.030;-1.550;2022-10-03T13:14:31;101209.41;;;11.60;100.00
46127;BME280;31859;55.030;-1.550;2022-10-03T13:17:12;101198.47;;;11.86;100.00
46127;BME280;31859;55.030;-1.550;2022-10-03T13:19:49;101209.72;;;11.43;100.00
46127;BME280;31859;55.030;-1.550;2022-10-03T13:22:30;101205.45;;;11.51;100.00
46127;BME280;31859;55.030;-1.550;2022-10-03T13:25:04;101205.18;;;11.99;100.00
46127;BME280;31859;55.030;-1.550;2022-10-03T13:27:41;101203.01;;;12.55;100.00
46127;BME280;31859;55.030;-1.550;2022-10-03T13:30:19;101208.33;;;11.81;100.00
46127;BME280;31859;55.030;-1.550;2022-10-03T13:32:51;101201.66;;;12.10;100.00
46127;BME280;31859;55.030;-1.550;2022-10-03T13:35:29;101191.48;;;12.38;100.00
46127;BME280;31859;55.030;-1.550;2022-10-03T13:38:16;101189.59;;;12.41;100.00
46127;BME280;31859;55.030;-1.550;2022-10-03T13:40:53;101186.04;;;13.49;100.00
46127;BME280;31859;55.030;-1.550;2022-10-03T13:43:26;101179.33;;;12.69;100.00
46127;BME280;31859;55.030;-1.550;2022-10-03T13:45:57;101180.62;;;12.55;100.00
46127;BME280;31859;55.030;-1.550;2022-10-03T13:48:27;101182.76;;;11.69;100.00
46127;BME280;31859;55.030;-1.550;2022-10-03T13:50:59;101175.80;;;11.56;100.00
46127;BME280;31859;55.030;-1.550;2022-10-03T13:53:43;101175.09;;;11.89;100.00
46127;BME280;31859;55.030;-1.550;2022-10-03T13:56:25;101175.70;;;11.83;100.00
46127;BME280;31859;55.030;-1.550;2022-10-03T13:59:04;101152.88;;;12.35;100.00
46127;BME280;31859;55.030;-1.550;2022-10-03T14:01:43;101161.42;;;12.11;100.00
46127;BME280;31859;55.030;-1.550;2022-10-03T14:04:32;101150.42;;;11.92;100.00
46127;BME280;31859;55.030;-1.550;2022-10-03T14:07:09;101146.84;;;11.80;100.00
46127;BME280;31859;55.030;-1.550;2022-10-03T14:09:56;101151.42;;;11.47;100.00
46127;BME280;31859;55.030;-1.550;2022-10-03T14:12:34;101146.48;;;11.12;100.00
46127;BME280;31859;55.030;-1.550;2022-10-03T14:15:17;101148.68;;;11.05;100.00
46127;BME280;31859;55.030;-1.550;2022-10-03T14:17:55;101143.38;;;11.21;100.00
46127;BME280;31859;55.030;-1.550;2022-10-03T14:20:30;101131.77;;;10.90;100.00
46127;BME280;31859;55.030;-1.550;2022-10-03T14:23:10;101129.75;;;11.28;100.00
46127;BME280;31859;55.030;-1.550;2022-10-03T14:25:46;101119.22;;;11.56;100.00
46127;BME280;31859;55.030;-1.550;2022-10-03T14:28:18;101111.85;;;12.40;100.00
46127;BME280;31859;55.030;-1.550;2022-10-03T14:30:56;101111.47;;;12.43;100.00
46127;BME280;31859;55.030;-1.550;2022-10-03T14:33:33;101102.50;;;12.56;100.00
46127;BME280;31859;55.030;-1.550;2022-10-03T14:36:15;101100.16;;;12.52;100.00
46127;BME280;31859;55.030;-1.550;2022-10-03T14:40:00;101091.50;;;12.45;100.00
46127;BME280;31859;55.030;-1.550;2022-10-03T14:42:41;101093.46;;;12.56;100.00
46127;BME280;31859;55.030;-1.550;2022-10-03T14:45:13;101085.87;;;12.85;100.00
46127;BME280;31859;55.030;-1.550;2022-10-03T14:47:47;101100.10;;;12.08;100.00
46127;BME280;31859;55.030;-1.550;2022-10-03T14:50:17;101100.78;;;12.29;100.00
46127;BME280;31859;55.030;-1.550;2022-10-03T14:52:48;101102.75;;;12.95;100.00
46127;BME280;31859;55.030;-1.550;2022-10-03T14:55:21;101100.35;;;12.32;100.00
46127;BME280;31859;55.030;-1.550;2022-10-03T14:57:51;101091.82;;;12.97;100.00
46127;BME280;31859;55.030;-1.550;2022-10-03T15:00:27;101082.46;;;13.05;100.00
46127;BME280;31859;55.030;-1.550;2022-10-03T15:03:12;101078.94;;;12.72;100.00
46127;BME280;31859;55.030;-1.550;2022-10-03T15:06:19;101078.94;;;12.54;100.00
46127;BME280;31859;55.030;-1.550;2022-10-03T15:08:50;101070.85;;;12.26;100.00